Time;durP1;ratioP1;P1;durP2;ratioP2;P2;SDS_P1;SDS_P2;PMS_P1;PMS_P2;Temp;Humidity;BMP_temperature;BMP_pressure;BME280_temperature;BME280_humidity;BME280_pressure;Samples;Min_cycle;Max_cycle;Signal;HPM_P1;HPM_P2
2022/07/07 00:03:34;;;;;;;2.15;1.10;;;21.20;54.40;;;;;;10132483;28;20028;-70
2022/07/07 00:08:25;;;;;;;2.72;1.40;;;21.20;54.90;;;;;;10132427;28;20123;-71
2022/07/07 00:13:15;;;;;;;2.42;1.27;;;21.10;54.80;;;;;;10132914;28;20427;-70
2022/07/07 00:18:06;;;;;;;1.00;0.90;;;21.00;55.00;;;;;;10113265;28;20068;-71
2022/07/07 00:22:57;;;;;;;4.85;1.10;;;20.80;55.40;;;;;;10125804;28;20039;-71
2022/07/07 00:27:47;;;;;;;1.58;1.20;;;20.70;55.50;;;;;;10111717;28;20036;-71
2022/07/07 00:32:38;;;;;;;2.45;1.70;;;20.90;55.50;;;;;;10129884;28;20465;-71
2022/07/07 00:37:29;;;;;;;2.65;1.08;;;20.90;55.40;;;;;;10131675;28;20027;-70
2022/07/07 00:42:19;;;;;;;2.53;1.20;;;21.00;55.50;;;;;;10131812;28;20017;-71
2022/07/07 00:47:11;;;;;;;2.85;0.98;;;21.10;55.40;;;;;;10132217;28;20100;-73
2022/07/07 00:52:02;;;;;;;2.20;1.30;;;20.90;55.70;;;;;;10132119;28;20029;-70
2022/07/07 00:56:52;;;;;;;2.78;0.90;;;20.70;56.20;;;;;;10114329;28;20024;-71
2022/07/07 01:01:43;;;;;;;1.65;0.95;;;20.50;56.60;;;;;;10131955;28;20035;-71
2022/07/07 01:06:34;;;;;;;2.25;1.70;;;20.60;56.60;;;;;;10139351;28;20099;-71
2022/07/07 01:11:25;;;;;;;1.15;0.82;;;20.30;56.90;;;;;;10120939;28;20032;-70
2022/07/07 01:16:15;;;;;;;2.13;1.10;;;20.30;57.10;;;;;;10139377;28;20024;-70
2022/07/07 01:21:09;;;;;;;1.92;1.17;;;20.00;57.40;;;;;;10139165;28;20024;-71
2022/07/07 01:25:59;;;;;;;2.55;1.00;;;20.10;57.50;;;;;;10150099;28;20450;-71
2022/07/07 01:30:50;;;;;;;2.20;1.20;;;20.10;57.80;;;;;;10150274;28;20080;-71
2022/07/07 01:35:41;;;;;;;3.67;1.20;;;20.10;58.00;;;;;;10144801;28;20056;-70
2022/07/07 01:40:31;;;;;;;2.10;1.30;;;20.10;58.10;;;;;;10138268;28;20059;-70
2022/07/07 01:45:22;;;;;;;2.63;1.40;;;20.00;58.60;;;;;;10138487;28;20021;-71
2022/07/07 01:50:13;;;;;;;3.47;1.83;;;19.80;58.80;;;;;;10138902;28;20534;-71
2022/07/07 01:55:04;;;;;;;2.50;1.65;;;19.80;59.30;;;;;;10124068;28;20147;-71
2022/07/07 01:59:54;;;;;;;5.00;1.38;;;19.60;59.70;;;;;;10132976;28;20487;-71
2022/07/07 02:04:45;;;;;;;3.45;1.65;;;19.30;60.20;;;;;;10119371;28;20044;-70
2022/07/07 02:09:36;;;;;;;2.80;1.65;;;19.10;60.70;;;;;;10131801;28;20047;-69
2022/07/07 02:14:27;;;;;;;1.73;1.23;;;19.20;60.80;;;;;;10136442;28;20020;-70
2022/07/07 02:19:17;;;;;;;1.17;1.13;;;19.30;60.90;;;;;;10127997;28;20449;-70
2022/07/07 02:24:08;;;;;;;1.50;1.40;;;19.20;61.10;;;;;;10134896;28;20486;-69
2022/07/07 02:28:59;;;;;;;6.72;1.60;;;19.20;61.30;;;;;;10136202;28;20566;-69
2022/07/07 02:33:50;;;;;;;2.58;1.50;;;19.50;61.20;;;;;;10129138;28;20400;-69
2022/07/07 02:38:41;;;;;;;2.95;1.48;;;19.40;61.50;;;;;;10127887;28;20028;-70
2022/07/07 02:43:32;;;;;;;1.90;1.70;;;19.40;61.90;;;;;;10117655;28;20437;-70
2022/07/07 02:48:25;;;;;;;5.47;1.90;;;19.30;62.20;;;;;;10135065;28;20036;-69
2022/07/07 02:53:17;;;;;;;3.40;1.70;;;19.30;62.60;;;;;;10128951;28;20551;-69
2022/07/07 02:58:09;;;;;;;1.98;1.42;;;19.30;63.20;;;;;;10136873;28;20273;-69
2022/07/07 03:03:02;;;;;;;1.92;1.40;;;19.30;63.30;;;;;;10134872;28;20636;-69
2022/07/07 03:07:53;;;;;;;1.45;1.10;;;19.20;63.60;;;;;;10132641;28;20437;-69
2022/07/07 03:12:44;;;;;;;2.30;1.30;;;19.20;64.20;;;;;;10115914;28;20032;-69
2022/07/07 03:17:36;;;;;;;2.17;1.27;;;19.30;64.40;;;;;;10135014;28;20028;-69
2022/07/07 03:22:26;;;;;;;3.20;1.67;;;19.30;64.60;;;;;;10123973;28;20024;-69
2022/07/07 03:27:17;;;;;;;5.53;1.48;;;19.10;65.10;;;;;;10133379;28;20028;-68
2022/07/07 03:32:08;;;;;;;2.95;1.27;;;18.90;65.60;;;;;;10133143;28;20057;-69
2022/07/07 03:36:59;;;;;;;1.15;1.00;;;18.70;65.90;;;;;;10133403;28;20020;-69
2022/07/07 03:41:49;;;;;;;1.73;1.38;;;18.80;66.20;;;;;;10115225;28;20545;-69
2022/07/07 03:46:40;;;;;;;4.85;1.52;;;18.70;66.50;;;;;;10133480;28;20544;-70
2022/07/07 03:51:31;;;;;;;2.17;1.50;;;18.70;66.50;;;;;;10132924;28;20509;-68
2022/07/07 03:56:22;;;;;;;2.05;1.05;;;18.80;66.60;;;;;;10132611;28;20024;-69
2022/07/07 04:01:13;;;;;;;5.40;1.30;;;18.50;67.20;;;;;;10133282;28;20059;-69
2022/07/07 04:06:04;;;;;;;3.25;2.40;;;18.70;67.10;;;;;;10132215;28;20028;-68
2022/07/07 04:10:55;;;;;;;1.30;1.10;;;18.50;67.60;;;;;;10136125;28;20058;-69
2022/07/07 04:15:46;;;;;;;3.03;1.65;;;18.40;67.80;;;;;;10134809;28;20529;-67
2022/07/07 04:20:36;;;;;;;1.92;1.40;;;18.40;67.80;;;;;;10104482;28;20529;-69
2022/07/07 04:25:27;;;;;;;2.47;1.42;;;18.50;67.80;;;;;;10133371;28;20029;-69
2022/07/07 04:30:18;;;;;;;1.65;1.40;;;18.40;68.10;;;;;;10116904;28;20052;-69
2022/07/07 04:35:09;;;;;;;2.30;1.17;;;18.60;68.20;;;;;;10139915;28;20020;-68
2022/07/07 04:40:00;;;;;;;1.60;1.30;;;18.50;68.30;;;;;;10147126;28;20102;-68
2022/07/07 04:44:51;;;;;;;2.20;1.60;;;18.60;68.20;;;;;;10151074;28;20071;-68
2022/07/07 04:49:42;;;;;;;2.05;1.65;;;18.50;68.60;;;;;;10147420;28;20140;-68
2022/07/07 04:54:32;;;;;;;2.72;1.60;;;18.80;68.60;;;;;;10139758;28;20029;-68
2022/07/07 04:59:23;;;;;;;1.85;1.48;;;18.80;68.50;;;;;;10139244;28;20032;-68
2022/07/07 05:04:14;;;;;;;3.83;1.65;;;18.80;68.60;;;;;;10139076;28;20027;-68
2022/07/07 05:09:04;;;;;;;1.70;1.55;;;18.90;68.90;;;;;;10136887;28;20039;-68
2022/07/07 05:13:55;;;;;;;2.63;1.50;;;19.00;68.50;;;;;;10138703;28;20364;-69
2022/07/07 05:18:46;;;;;;;1.70;1.48;;;19.20;68.40;;;;;;10116919;28;20091;-68
2022/07/07 05:23:36;;;;;;;2.58;1.80;;;19.10;68.40;;;;;;10132965;28;20021;-67
2022/07/07 05:28:30;;;;;;;4.25;1.85;;;19.00;68.60;;;;;;10137955;28;20029;-68
2022/07/07 05:33:20;;;;;;;3.85;1.80;;;19.00;68.70;;;;;;10137736;28;20492;-67
2022/07/07 05:38:11;;;;;;;2.83;1.58;;;19.00;69.00;;;;;;10138179;28;20139;-68
2022/07/07 05:43:01;;;;;;;4.22;1.60;;;18.90;69.10;;;;;;10127383;28;20021;-68
2022/07/07 05:47:52;;;;;;;2.97;1.65;;;19.20;68.90;;;;;;10137745;28;20072;-68
2022/07/07 05:52:43;;;;;;;1.92;1.30;;;19.40;68.70;;;;;;10120369;28;20048;-68
2022/07/07 05:57:34;;;;;;;4.72;1.80;;;19.60;68.50;;;;;;10119163;28;20086;-68
2022/07/07 06:02:25;;;;;;;1.70;1.58;;;19.70;68.30;;;;;;10136414;28;20585;-68
2022/07/07 06:07:15;;;;;;;2.33;1.35;;;19.90;68.20;;;;;;10137127;28;20487;-68
2022/07/07 06:12:06;;;;;;;6.78;1.73;;;19.70;68.20;;;;;;10136813;28;20059;-68
2022/07/07 06:16:57;;;;;;;3.17;1.90;;;19.70;68.40;;;;;;10136842;28;20026;-67
2022/07/07 06:21:48;;;;;;;4.03;2.28;;;20.00;68.10;;;;;;10126642;28;20021;-69
2022/07/07 06:26:38;;;;;;;2.22;1.60;;;20.20;67.80;;;;;;10137410;28;20028;-68
2022/07/07 06:31:29;;;;;;;2.63;1.50;;;20.40;67.00;;;;;;10135808;28;20399;-67
2022/07/07 06:36:20;;;;;;;6.13;2.13;;;20.40;67.10;;;;;;10136409;28;20478;-68
2022/07/07 06:41:11;;;;;;;2.78;1.70;;;20.70;67.10;;;;;;10136647;28;20470;-66
2022/07/07 06:46:02;;;;;;;2.88;1.40;;;21.00;67.10;;;;;;10134719;28;20406;-67
2022/07/07 06:50:52;;;;;;;1.90;1.33;;;20.80;67.20;;;;;;10133532;28;20368;-65
2022/07/07 06:55:43;;;;;;;9.20;2.08;;;21.00;67.10;;;;;;10135825;28;20477;-66
2022/07/07 07:00:34;;;;;;;2.75;1.95;;;21.00;67.00;;;;;;10135254;28;20464;-67
2022/07/07 07:05:26;;;;;;;4.30;1.30;;;21.20;66.60;;;;;;10136699;28;20513;-68
2022/07/07 07:10:17;;;;;;;4.78;1.83;;;21.20;66.70;;;;;;10138149;28;20078;-66
2022/07/07 07:15:08;;;;;;;1.75;1.15;;;21.40;66.30;;;;;;10134679;28;20077;-72
2022/07/07 07:19:59;;;;;;;2.42;1.40;;;21.50;66.20;;;;;;10133990;28;20552;-64
2022/07/07 07:24:49;;;;;;;2.20;1.38;;;21.30;66.20;;;;;;10134027;28;20021;-67
2022/07/07 07:29:40;;;;;;;3.45;1.48;;;21.00;66.70;;;;;;10132615;28;20537;-66
2022/07/07 07:34:31;;;;;;;3.90;1.50;;;21.00;66.90;;;;;;10122856;28;20017;-67
2022/07/07 07:39:21;;;;;;;1.65;1.55;;;20.90;66.80;;;;;;10115525;28;20029;-67
2022/07/07 07:44:12;;;;;;;8.63;1.70;;;21.30;66.50;;;;;;10132672;28;20036;-68
2022/07/07 07:49:06;;;;;;;3.90;1.40;;;21.40;66.10;;;;;;10131890;28;20044;-66
2022/07/07 07:53:56;;;;;;;2.50;1.85;;;21.50;66.10;;;;;;10115546;28;20479;-66
2022/07/07 07:58:47;;;;;;;2.75;1.40;;;21.60;66.10;;;;;;10133253;28;20028;-71
2022/07/07 08:03:38;;;;;;;4.88;1.95;;;21.80;66.10;;;;;;10136651;28;20483;-67
2022/07/07 08:08:28;;;;;;;2.13;1.15;;;22.00;65.80;;;;;;10138770;28;20119;-65
2022/07/07 08:13:19;;;;;;;6.28;1.90;;;22.20;65.60;;;;;;10134236;28;20038;-66
2022/07/07 08:18:10;;;;;;;2.65;1.75;;;21.80;65.90;;;;;;10123127;28;20017;-65
2022/07/07 08:23:00;;;;;;;4.57;1.67;;;21.50;66.50;;;;;;10124952;28;20078;-66
2022/07/07 08:27:51;;;;;;;3.15;2.20;;;21.40;66.50;;;;;;10128829;28;20473;-65
2022/07/07 08:32:45;;;;;;;4.13;1.80;;;21.40;66.50;;;;;;10128967;28;20056;-66
2022/07/07 08:37:35;;;;;;;2.45;1.70;;;21.70;66.10;;;;;;10131535;28;20028;-66
2022/07/07 08:42:26;;;;;;;3.70;1.40;;;21.60;66.20;;;;;;10130743;28;20025;-65
2022/07/07 08:47:17;;;;;;;4.20;2.00;;;21.70;66.20;;;;;;10130819;28;20479;-67
2022/07/07 08:52:08;;;;;;;2.83;1.77;;;21.70;66.10;;;;;;10143443;28;20049;-66
2022/07/07 08:56:59;;;;;;;4.40;1.55;;;21.70;66.80;;;;;;10131789;28;20013;-74
2022/07/07 09:01:55;;;;;;;5.70;1.60;;;21.70;66.40;;;;;;10131253;28;20020;-62
2022/07/07 09:07:01;;;;;;;3.67;1.60;;;22.10;66.10;;;;;;10131870;28;20021;-63
2022/07/07 09:11:59;;;;;;;3.05;1.50;;;22.30;65.80;;;;;;10130577;28;20044;-63
2022/07/07 09:16:50;;;;;;;3.47;1.58;;;22.40;66.20;;;;;;10130996;28;20021;-65
2022/07/07 09:21:41;;;;;;;7.47;2.97;;;22.50;66.10;;;;;;10131348;28;20032;-64
2022/07/07 09:26:44;;;;;;;1.73;1.20;;;22.80;65.90;;;;;;10136025;28;20119;-66
2022/07/07 09:31:57;;;;;;;2.70;1.23;;;22.70;66.10;;;;;;10137291;28;20060;-63
2022/07/07 09:41:58;;;;;;;2.75;1.85;;;23.10;65.50;;;;;;10135426;28;20544;-69
2022/07/07 09:46:49;;;;;;;5.43;1.60;;;23.80;64.70;;;;;;10136710;28;20034;-66
2022/07/07 09:51:40;;;;;;;5.18;1.85;;;24.00;64.30;;;;;;10137136;28;20142;-66
2022/07/07 09:56:41;;;;;;;5.53;1.73;;;23.80;64.50;;;;;;10135017;28;20115;-64
2022/07/07 10:01:37;;;;;;;2.85;1.60;;;23.80;64.60;;;;;;10134866;28;20514;-64
2022/07/07 10:06:30;;;;;;;4.78;1.65;;;23.90;64.50;;;;;;10136972;28;20017;-66
2022/07/07 10:11:24;;;;;;;3.83;1.48;;;24.00;64.10;;;;;;10133903;28;20569;-65
2022/07/07 10:16:15;;;;;;;2.47;1.85;;;24.40;63.80;;;;;;10136166;28;20427;-68
2022/07/07 10:21:06;;;;;;;3.15;1.42;;;24.80;63.20;;;;;;10136002;28;20033;-67
2022/07/07 10:26:04;;;;;;;5.43;2.55;;;24.40;63.30;;;;;;10135563;28;20020;-66
2022/07/07 10:30:55;;;;;;;4.75;1.88;;;24.20;63.60;;;;;;10140094;28;20615;-73
2022/07/07 10:35:46;;;;;;;2.17;1.58;;;24.50;63.10;;;;;;10142120;28;20013;-67
2022/07/07 10:40:36;;;;;;;3.30;2.10;;;24.70;62.70;;;;;;10139352;28;20085;-70
2022/07/07 10:45:28;;;;;;;3.47;1.40;;;24.90;62.50;;;;;;10120992;28;20032;-66
2022/07/07 10:50:31;;;;;;;2.78;1.80;;;24.70;62.30;;;;;;10136351;28;20613;-68
2022/07/07 10:55:56;;;;;;;2.13;1.42;;;24.40;62.40;;;;;;10136109;28;20022;-67
2022/07/07 11:01:07;;;;;;;2.17;1.35;;;24.10;62.50;;;;;;10137348;28;20479;-65
2022/07/07 11:05:58;;;;;;;3.78;1.10;;;24.00;62.60;;;;;;10136296;28;20019;-65
2022/07/07 11:10:52;;;;;;;2.53;1.58;;;23.80;62.80;;;;;;10136510;28;20041;-66
2022/07/07 11:16:08;;;;;;;2.15;1.80;;;23.50;62.90;;;;;;10119082;28;20479;-64
2022/07/07 11:21:01;;;;;;;1.73;1.27;;;23.30;63.00;;;;;;10115909;28;20107;-63
2022/07/07 11:25:57;;;;;;;3.45;1.70;;;23.50;62.90;;;;;;10132925;28;20035;-63
2022/07/07 11:30:47;;;;;;;2.15;1.40;;;23.40;63.00;;;;;;10131575;28;20560;-63
2022/07/07 11:35:40;;;;;;;3.78;1.20;;;23.50;62.90;;;;;;10132297;28;20031;-62
2022/07/07 11:40:31;;;;;;;3.05;1.95;;;23.60;62.70;;;;;;10133239;28;20121;-63
2022/07/07 11:45:25;;;;;;;2.83;1.52;;;23.60;62.50;;;;;;10132870;28;20082;-63
2022/07/07 11:50:17;;;;;;;2.70;1.20;;;23.60;62.50;;;;;;10131668;28;20494;-62
2022/07/07 11:55:08;;;;;;;3.05;1.60;;;23.50;62.40;;;;;;10114554;28;20039;-63
2022/07/07 12:00:13;;;;;;;2.85;1.60;;;23.40;62.60;;;;;;10132318;28;20038;-63
2022/07/07 12:05:04;;;;;;;2.00;1.52;;;23.50;62.70;;;;;;10132132;28;20021;-64
2022/07/07 12:09:55;;;;;;;4.75;2.20;;;23.60;62.80;;;;;;10114115;28;20044;-67
2022/07/07 12:14:46;;;;;;;2.65;1.75;;;24.20;62.40;;;;;;10132152;28;20025;-66
2022/07/07 12:19:47;;;;;;;1.77;1.42;;;24.50;62.20;;;;;;10132230;28;20024;-66
2022/07/07 12:24:37;;;;;;;2.97;2.10;;;24.50;62.50;;;;;;10131745;28;20064;-67
2022/07/07 12:29:28;;;;;;;7.43;1.40;;;24.10;63.60;;;;;;10131189;28;20053;-66
2022/07/07 12:34:22;;;;;;;2.65;1.88;;;23.90;63.40;;;;;;10127209;28;20025;-66
2022/07/07 12:39:13;;;;;;;1.63;1.30;;;23.80;63.60;;;;;;10101870;28;20044;-66
2022/07/07 12:44:22;;;;;;;2.67;2.30;;;23.80;63.50;;;;;;10129779;28;20021;-65
2022/07/07 12:49:13;;;;;;;1.20;1.10;;;24.20;63.40;;;;;;10119783;28;20036;-65
2022/07/07 12:54:04;;;;;;;1.45;1.00;;;24.30;63.10;;;;;;10131412;28;20017;-67
2022/07/07 12:58:55;;;;;;;2.25;1.50;;;24.30;63.40;;;;;;10132180;28;20032;-66
2022/07/07 13:03:48;;;;;;;6.28;1.30;;;24.40;63.70;;;;;;10138589;28;20027;-64
2022/07/07 13:08:39;;;;;;;3.08;1.38;;;24.60;63.60;;;;;;10136700;28;20044;-64
2022/07/07 13:13:30;;;;;;;1.63;1.10;;;24.70;63.80;;;;;;10120580;28;20529;-63
2022/07/07 13:18:25;;;;;;;2.58;1.10;;;24.80;63.60;;;;;;10138902;28;20028;-65
2022/07/07 13:23:16;;;;;;;1.50;1.20;;;25.10;63.40;;;;;;10138632;28;20035;-61
2022/07/07 13:28:07;;;;;;;2.90;1.20;;;25.30;63.10;;;;;;10139238;28;20423;-62
2022/07/07 13:32:57;;;;;;;1.50;1.40;;;24.80;63.80;;;;;;10138313;28;20087;-62
2022/07/07 13:37:48;;;;;;;3.33;1.08;;;24.70;64.10;;;;;;10139339;28;20028;-64
2022/07/07 13:42:39;;;;;;;1.73;1.10;;;24.50;64.40;;;;;;10138604;28;20033;-65
2022/07/07 13:47:29;;;;;;;2.03;1.05;;;25.20;63.40;;;;;;10137795;28;20362;-66
2022/07/07 13:52:20;;;;;;;2.05;1.13;;;25.30;63.90;;;;;;10138036;28;20035;-64
2022/07/07 13:57:11;;;;;;;2.13;1.02;;;28.80;61.10;;;;;;10137130;28;20028;-66
2022/07/07 14:02:03;;;;;;;2.65;1.08;;;29.20;59.70;;;;;;10137092;28;20505;-64
2022/07/07 14:06:54;;;;;;;1.80;1.40;;;29.10;59.90;;;;;;10136515;28;20056;-65
2022/07/07 14:11:44;;;;;;;0.82;0.73;;;30.70;58.30;;;;;;10117764;28;20071;-63
2022/07/07 14:16:35;;;;;;;1.25;1.10;;;30.40;58.00;;;;;;10136390;28;20581;-63
2022/07/07 14:21:26;;;;;;;2.70;0.90;;;31.80;55.60;;;;;;10135683;28;20024;-64
2022/07/07 14:26:17;;;;;;;2.65;0.90;;;30.70;57.90;;;;;;10135577;28;20081;-65
2022/07/07 14:31:08;;;;;;;1.63;0.98;;;29.00;57.60;;;;;;10131382;28;20514;-63
2022/07/07 14:35:58;;;;;;;1.00;0.82;;;29.60;58.50;;;;;;10117966;28;20020;-69
2022/07/07 14:40:49;;;;;;;1.08;0.80;;;28.10;57.50;;;;;;10135925;28;20040;-68
2022/07/07 14:45:40;;;;;;;1.20;1.10;;;29.60;56.80;;;;;;10135127;28;20514;-66
2022/07/07 14:50:32;;;;;;;0.95;0.65;;;31.30;54.90;;;;;;10134309;28;20372;-64
2022/07/07 14:55:24;;;;;;;;;;;31.90;54.20;;;;;;10135279;28;20158;-67
2022/07/07 15:00:14;;;;;;;;;;;32.40;53.30;;;;;;10117539;28;19916;-65
2022/07/07 15:05:05;;;;;;;1.10;0.90;;;32.40;52.90;;;;;;10134018;28;19908;-63
2022/07/07 15:09:56;;;;;;;1.48;0.75;;;30.10;55.60;;;;;;10133701;28;20043;-64
2022/07/07 15:14:46;;;;;;;2.00;0.80;;;28.30;56.60;;;;;;10115193;28;20120;-65
2022/07/07 15:19:37;;;;;;;2.38;0.98;;;27.50;56.90;;;;;;10133349;28;20414;-67
2022/07/07 15:24:28;;;;;;;1.75;1.20;;;26.70;57.70;;;;;;10132609;28;20013;-68
2022/07/07 15:29:18;;;;;;;1.17;0.70;;;27.20;57.10;;;;;;10133148;28;20137;-65
2022/07/07 15:34:10;;;;;;;2.88;1.33;;;26.50;57.70;;;;;;10133272;28;20691;-67
2022/07/07 15:39:00;;;;;;;2.00;0.85;;;27.20;57.60;;;;;;10132414;28;20443;-67
2022/07/07 15:43:51;;;;;;;1.00;1.00;;;29.60;55.10;;;;;;10133112;28;20171;-67
2022/07/07 15:48:44;;;;;;;0.85;0.85;;;28.60;55.40;;;;;;10132601;28;20191;-68
2022/07/07 15:53:35;;;;;;;1.35;0.88;;;27.80;55.60;;;;;;10135886;28;20029;-67
2022/07/07 15:58:25;;;;;;;1.27;1.00;;;27.20;55.70;;;;;;10142409;28;20028;-68
2022/07/07 16:03:16;;;;;;;4.03;1.27;;;26.60;55.90;;;;;;10137713;28;20024;-66
2022/07/07 16:08:07;;;;;;;3.40;1.77;;;26.40;55.70;;;;;;10133312;28;20029;-64
2022/07/07 16:12:57;;;;;;;1.40;0.93;;;26.50;55.80;;;;;;10133048;28;20108;-69
2022/07/07 16:17:48;;;;;;;1.88;0.85;;;27.40;55.20;;;;;;10114622;28;20558;-66
2022/07/07 16:22:39;;;;;;;2.03;0.90;;;30.50;52.10;;;;;;10132116;28;20036;-64
2022/07/07 16:27:30;;;;;;;1.88;1.20;;;30.00;52.30;;;;;;10131882;28;20032;-69
2022/07/07 16:32:21;;;;;;;1.75;1.10;;;27.50;54.30;;;;;;10133420;28;20442;-67
2022/07/07 16:37:12;;;;;;;20.83;13.73;;;25.80;55.60;;;;;;10141016;28;20017;-66
2022/07/07 16:42:04;;;;;;;15.82;9.45;;;25.20;56.30;;;;;;10139959;28;20103;-62
2022/07/07 16:46:54;;;;;;;4.43;2.28;;;25.00;56.50;;;;;;10139331;28;20025;-63
2022/07/07 16:51:45;;;;;;;4.55;1.67;;;24.80;56.80;;;;;;10139517;28;20040;-62
2022/07/07 16:56:36;;;;;;;3.05;1.95;;;24.70;57.00;;;;;;10139921;28;20020;-62
2022/07/07 17:01:27;;;;;;;1.75;0.85;;;24.50;57.60;;;;;;10140601;28;20031;-63
2022/07/07 17:06:20;;;;;;;4.10;1.77;;;24.50;58.10;;;;;;10142271;28;20394;-63
2022/07/07 17:11:10;;;;;;;1.48;0.93;;;24.30;58.50;;;;;;10139727;28;20024;-62
2022/07/07 17:16:01;;;;;;;1.73;1.08;;;24.50;58.40;;;;;;10138797;28;20108;-62
2022/07/07 17:20:52;;;;;;;1.42;1.15;;;24.50;58.50;;;;;;10137699;28;20394;-62
2022/07/07 17:25:42;;;;;;;2.42;0.93;;;24.60;58.40;;;;;;10137919;28;20043;-62
2022/07/07 17:30:33;;;;;;;3.20;1.20;;;24.60;58.50;;;;;;10119287;28;20515;-63
2022/07/07 17:35:25;;;;;;;2.45;1.00;;;24.30;58.90;;;;;;10137525;28;20028;-63
2022/07/07 17:40:17;;;;;;;3.17;1.25;;;24.10;59.20;;;;;;10137684;28;20411;-63
2022/07/07 17:45:08;;;;;;;1.48;1.20;;;24.10;59.50;;;;;;10136642;28;20123;-62
2022/07/07 17:49:58;;;;;;;1.77;1.35;;;24.10;59.60;;;;;;10134654;28;20028;-63
2022/07/07 17:54:49;;;;;;;2.00;1.05;;;23.80;60.10;;;;;;10136987;28;20447;-63
2022/07/07 17:59:40;;;;;;;1.10;1.00;;;23.90;60.20;;;;;;10138087;28;20160;-63
2022/07/07 18:04:30;;;;;;;2.80;1.20;;;24.30;59.50;;;;;;10137285;28;20021;-62
2022/07/07 18:09:21;;;;;;;6.47;3.70;;;24.30;59.60;;;;;;10118986;28;20028;-64
2022/07/07 18:14:12;;;;;;;2.38;1.80;;;24.30;59.80;;;;;;10136113;28;20120;-63
2022/07/07 18:19:03;;;;;;;3.72;1.60;;;24.00;60.50;;;;;;10135115;28;20028;-62
2022/07/07 18:23:54;;;;;;;2.83;1.45;;;23.60;61.00;;;;;;10134711;28;20501;-63
2022/07/07 18:28:45;;;;;;;2.28;1.30;;;23.50;61.50;;;;;;10135490;28;20100;-62
2022/07/07 18:33:37;;;;;;;2.92;1.55;;;23.50;61.40;;;;;;10131102;28;20139;-63
2022/07/07 18:38:27;;;;;;;5.32;1.42;;;23.50;61.40;;;;;;10110103;28;20029;-63
2022/07/07 18:43:18;;;;;;;3.42;1.40;;;23.40;61.50;;;;;;10134061;28;20024;-62
2022/07/07 18:48:09;;;;;;;1.27;1.17;;;23.40;62.00;;;;;;10123242;28;20032;-61
2022/07/07 18:53:00;;;;;;;3.45;1.60;;;23.30;62.00;;;;;;10125339;28;20035;-62
2022/07/07 18:57:50;;;;;;;3.72;1.90;;;23.30;62.20;;;;;;10133448;28;20031;-62
2022/07/07 19:02:42;;;;;;;3.65;1.30;;;23.00;62.90;;;;;;10133566;28;20024;-63
2022/07/07 19:07:33;;;;;;;2.63;1.73;;;23.00;63.10;;;;;;10134672;28;20025;-65
2022/07/07 19:12:24;;;;;;;3.83;1.60;;;23.00;63.50;;;;;;10115612;28;20078;-61
2022/07/07 19:17:14;;;;;;;6.18;2.13;;;22.90;63.70;;;;;;10134125;28;20036;-64
2022/07/07 19:22:06;;;;;;;5.75;2.92;;;23.10;63.60;;;;;;10133605;28;20032;-61
2022/07/07 19:26:57;;;;;;;5.95;2.63;;;23.00;63.60;;;;;;10133386;28;20029;-59
2022/07/07 19:31:48;;;;;;;3.40;2.15;;;22.70;64.00;;;;;;10115025;28;20049;-61
2022/07/07 19:36:42;;;;;;;8.43;4.35;;;22.70;64.10;;;;;;10133442;28;20510;-60
2022/07/07 19:41:33;;;;;;;2.35;1.45;;;22.70;64.40;;;;;;10133299;28;20398;-60
2022/07/07 19:46:23;;;;;;;2.50;1.23;;;22.60;64.50;;;;;;10133233;28;20093;-59
2022/07/07 19:51:15;;;;;;;3.50;1.10;;;22.60;64.80;;;;;;10131912;28;20484;-59
2022/07/07 19:56:06;;;;;;;1.00;0.90;;;22.50;64.80;;;;;;10132924;28;20025;-65
2022/07/07 20:00:57;;;;;;;2.40;1.10;;;22.50;65.10;;;;;;10132368;28;20024;-63
2022/07/07 20:05:48;;;;;;;2.13;1.23;;;22.40;65.30;;;;;;10118210;28;20477;-66
2022/07/07 20:10:39;;;;;;;2.25;1.02;;;22.60;65.20;;;;;;10128671;28;20036;-64
2022/07/07 20:15:31;;;;;;;2.33;1.10;;;22.60;65.30;;;;;;10113632;28;20028;-66
2022/07/07 20:20:22;;;;;;;2.05;0.85;;;22.60;65.50;;;;;;10132055;28;20073;-65
2022/07/07 20:25:13;;;;;;;4.07;1.90;;;22.30;66.10;;;;;;10133148;28;20452;-64
2022/07/07 20:30:05;;;;;;;1.10;0.93;;;22.40;66.10;;;;;;10133520;28;20043;-61
2022/07/07 20:34:56;;;;;;;4.35;1.90;;;22.20;66.80;;;;;;10133409;28;20032;-66
2022/07/07 20:39:47;;;;;;;1.90;1.60;;;22.00;66.90;;;;;;10132364;28;20028;-64
2022/07/07 20:44:37;;;;;;;7.15;3.78;;;21.90;67.40;;;;;;10114416;28;20445;-68
2022/07/07 20:49:28;;;;;;;3.00;1.40;;;22.10;67.20;;;;;;10114443;28;20036;-66
2022/07/07 20:54:19;;;;;;;1.50;1.08;;;22.00;67.50;;;;;;10130538;28;20044;-66
2022/07/07 20:59:10;;;;;;;1.80;0.95;;;22.20;67.00;;;;;;10131399;28;20021;-65
2022/07/07 21:04:00;;;;;;;1.25;1.08;;;22.10;67.30;;;;;;10121959;28;20094;-65
2022/07/07 21:08:51;;;;;;;0.77;0.60;;;21.90;67.30;;;;;;10131134;28;20072;-64
2022/07/07 21:13:42;;;;;;;2.47;1.27;;;21.90;67.70;;;;;;10131860;28;20084;-65
2022/07/07 21:18:32;;;;;;;2.05;1.10;;;21.80;68.20;;;;;;10112360;28;20021;-63
2022/07/07 21:23:23;;;;;;;1.52;1.10;;;21.90;67.80;;;;;;10136362;28;20033;-64
2022/07/07 21:28:14;;;;;;;2.03;1.02;;;21.80;68.30;;;;;;10137429;28;20489;-63
2022/07/07 21:33:05;;;;;;;5.57;1.65;;;21.80;68.30;;;;;;10137135;28;20051;-64
2022/07/07 21:37:57;;;;;;;1.65;0.93;;;21.70;68.70;;;;;;10137661;28;20024;-64
2022/07/07 21:42:47;;;;;;;1.02;0.93;;;21.40;69.10;;;;;;10137374;28;20029;-64
2022/07/07 21:47:38;;;;;;;2.03;0.80;;;21.50;69.20;;;;;;10136333;28;20013;-64
2022/07/07 21:52:29;;;;;;;1.55;0.82;;;21.50;69.30;;;;;;10137370;28;20410;-63
2022/07/07 21:57:20;;;;;;;1.65;1.20;;;21.50;69.50;;;;;;10136465;28;20024;-64
2022/07/07 22:02:10;;;;;;;1.27;0.90;;;21.40;69.70;;;;;;10135724;28;20036;-64
2022/07/07 22:07:02;;;;;;;1.70;0.80;;;21.40;69.70;;;;;;10136142;28;20032;-63
2022/07/07 22:11:53;;;;;;;2.22;0.90;;;21.20;70.10;;;;;;10135535;28;20443;-63
2022/07/07 22:16:44;;;;;;;1.08;0.90;;;21.20;70.30;;;;;;10117862;28;20115;-63
2022/07/07 22:21:35;;;;;;;3.58;2.05;;;21.20;70.10;;;;;;10135724;28;20115;-63
2022/07/07 22:26:25;;;;;;;1.50;0.90;;;21.00;70.60;;;;;;10136195;28;20101;-63
2022/07/07 22:31:16;;;;;;;1.13;1.02;;;21.00;70.60;;;;;;10135272;28;20048;-64
2022/07/07 22:36:07;;;;;;;2.00;1.10;;;21.00;70.90;;;;;;10135915;28;20070;-63
2022/07/07 22:40:58;;;;;;;2.13;1.17;;;20.90;70.90;;;;;;10135501;28;20082;-64
2022/07/07 22:45:49;;;;;;;1.98;1.00;;;21.00;70.90;;;;;;10116667;28;20657;-64
2022/07/07 22:50:40;;;;;;;1.20;0.88;;;21.10;70.70;;;;;;10134586;28;20174;-64
2022/07/07 22:55:31;;;;;;;2.55;1.20;;;21.00;71.00;;;;;;10134282;28;20020;-62
2022/07/07 23:00:21;;;;;;;1.25;0.88;;;21.00;71.30;;;;;;10133839;28;20043;-63
2022/07/07 23:05:12;;;;;;;0.75;0.75;;;21.00;71.40;;;;;;10133754;28;20142;-63
2022/07/07 23:10:03;;;;;;;1.20;0.93;;;20.90;71.50;;;;;;10133307;28;20040;-63
2022/07/07 23:14:54;;;;;;;1.00;0.73;;;21.00;71.60;;;;;;10133786;28;20021;-63
2022/07/07 23:19:44;;;;;;;1.42;0.70;;;20.80;71.80;;;;;;10134383;28;20024;-63
2022/07/07 23:24:35;;;;;;;1.67;1.27;;;20.80;71.90;;;;;;10133033;28;20550;-63
2022/07/07 23:29:26;;;;;;;1.00;0.77;;;21.00;71.90;;;;;;10124723;28;20133;-63
2022/07/07 23:34:16;;;;;;;1.10;0.80;;;20.80;71.90;;;;;;10132705;28;20136;-64
2022/07/07 23:39:07;;;;;;;1.75;1.10;;;20.90;71.90;;;;;;10114709;28;20029;-64
2022/07/07 23:43:58;;;;;;;2.08;0.98;;;20.70;72.40;;;;;;10132281;28;20013;-63
2022/07/07 23:48:48;;;;;;;1.33;0.90;;;20.60;72.70;;;;;;10114961;28;20075;-64
2022/07/07 23:53:39;;;;;;;3.28;1.10;;;20.70;72.60;;;;;;10132982;28;20101;-64
2022/07/07 23:58:30;;;;;;;0.98;0.70;;;20.50;73.20;;;;;;10133248;28;20531;-62
